Time;durP1;ratioP1;P1;durP2;ratioP2;P2;SDS_P1;SDS_P2;PMS_P1;PMS_P2;Temp;Humidity;BMP_temperature;BMP_pressure;BME280_temperature;BME280_humidity;BME280_pressure;Samples;Min_cycle;Max_cycle;Signal;HPM_P1;HPM_P2
2021/08/21 00:01:48;;;;;;;6.57;4.70;;;26.30;49.30;;;;;;4957028;29;20024;-50
2021/08/21 00:04:15;;;;;;;6.55;4.43;;;26.30;49.30;;;;;;4957713;29;20030;-49
2021/08/21 00:06:41;;;;;;;7.28;3.80;;;26.20;49.20;;;;;;4956899;29;20031;-46
2021/08/21 00:09:07;;;;;;;7.20;4.60;;;26.30;49.30;;;;;;4956410;29;20530;-49
2021/08/21 00:11:33;;;;;;;6.68;4.40;;;26.20;49.20;;;;;;4957432;29;20027;-46
2021/08/21 00:13:59;;;;;;;6.32;4.00;;;26.20;49.20;;;;;;4956921;29;20495;-46
2021/08/21 00:16:24;;;;;;;9.98;4.88;;;26.20;49.30;;;;;;4957312;29;20461;-48
2021/08/21 00:18:50;;;;;;;5.38;4.40;;;26.20;49.40;;;;;;4956727;29;20079;-46
2021/08/21 00:21:16;;;;;;;6.78;4.15;;;26.20;49.50;;;;;;4957240;29;20034;-50
2021/08/21 00:23:42;;;;;;;8.18;4.35;;;26.20;49.50;;;;;;4955690;29;20028;-51
2021/08/21 00:26:09;;;;;;;9.32;4.15;;;26.20;49.60;;;;;;4956106;29;20110;-50
2021/08/21 00:28:34;;;;;;;7.18;4.50;;;26.20;49.50;;;;;;4957389;29;20029;-46
2021/08/21 00:31:00;;;;;;;6.15;4.03;;;26.20;49.60;;;;;;4956498;29;20023;-51
2021/08/21 00:33:26;;;;;;;9.23;3.92;;;26.20;49.60;;;;;;4956975;29;20106;-52
2021/08/21 00:35:51;;;;;;;8.82;4.32;;;26.20;49.70;;;;;;4956654;29;20031;-46
2021/08/21 00:38:17;;;;;;;7.40;4.07;;;26.20;49.80;;;;;;4956714;29;20045;-48
2021/08/21 00:40:43;;;;;;;6.45;4.15;;;26.10;49.70;;;;;;4956388;29;20027;-47
2021/08/21 00:43:09;;;;;;;5.93;3.72;;;26.10;49.80;;;;;;4956748;29;20029;-47
2021/08/21 00:45:35;;;;;;;8.55;4.05;;;26.10;49.80;;;;;;4957088;29;20027;-47
2021/08/21 00:48:01;;;;;;;7.88;4.30;;;26.10;49.90;;;;;;4956168;29;20024;-51
2021/08/21 00:50:26;;;;;;;6.40;4.65;;;26.00;49.90;;;;;;4955800;29;20031;-49
2021/08/21 00:52:52;;;;;;;7.28;4.30;;;26.00;50.10;;;;;;4954726;29;20122;-45
2021/08/21 00:55:18;;;;;;;7.78;4.70;;;25.90;50.10;;;;;;4956536;29;20071;-40
2021/08/21 00:57:44;;;;;;;6.32;4.13;;;25.90;50.10;;;;;;4955589;29;20038;-50
2021/08/21 01:00:11;;;;;;;6.00;4.50;;;25.90;50.30;;;;;;4956176;29;20097;-43
2021/08/21 01:02:36;;;;;;;13.98;4.65;;;25.80;50.40;;;;;;4955050;29;20038;-47
2021/08/21 01:05:05;;;;;;;8.02;4.25;;;25.80;50.50;;;;;;4955409;28;20031;-42
2021/08/21 01:07:34;;;;;;;6.55;4.07;;;25.80;50.70;;;;;;4954711;29;20027;-45
2021/08/21 01:10:04;;;;;;;6.15;4.05;;;25.70;50.80;;;;;;4954462;29;20038;-44
2021/08/21 01:12:30;;;;;;;8.85;4.63;;;25.70;50.80;;;;;;4956176;29;20027;-41
2021/08/21 01:14:56;;;;;;;7.72;4.30;;;25.70;50.80;;;;;;4954704;29;20054;-40
2021/08/21 01:17:22;;;;;;;9.20;4.07;;;25.70;51.00;;;;;;4956039;29;20468;-45
2021/08/21 01:19:51;;;;;;;6.22;4.32;;;25.60;51.10;;;;;;4955993;29;20134;-47
2021/08/21 01:22:21;;;;;;;7.57;4.43;;;25.60;51.20;;;;;;4954632;29;20023;-44
2021/08/21 01:24:50;;;;;;;10.02;4.88;;;25.60;51.30;;;;;;4955864;29;20469;-49
2021/08/21 01:27:34;;;;;;;6.50;4.25;;;25.60;51.50;;;;;;4956002;29;20027;-45
2021/08/21 01:30:00;;;;;;;8.57;4.53;;;25.50;51.60;;;;;;4955758;29;20042;-43
2021/08/21 01:32:27;;;;;;;6.95;4.30;;;25.60;51.50;;;;;;4955933;29;20035;-43
2021/08/21 01:34:54;;;;;;;8.75;4.75;;;25.60;51.50;;;;;;4955240;29;20027;-43
2021/08/21 01:37:21;;;;;;;7.53;4.68;;;25.60;51.50;;;;;;4956322;29;20024;-43
2021/08/21 01:39:49;;;;;;;5.78;4.32;;;25.60;51.50;;;;;;4955636;29;20393;-48
2021/08/21 01:42:15;;;;;;;5.70;4.18;;;25.60;51.60;;;;;;4955884;29;20027;-43
2021/08/21 01:44:41;;;;;;;5.53;4.35;;;25.60;51.60;;;;;;4938546;29;20035;-47
2021/08/21 01:47:08;;;;;;;8.13;4.93;;;25.60;51.60;;;;;;4953923;29;20544;-43
2021/08/21 01:49:35;;;;;;;7.05;4.28;;;25.60;51.50;;;;;;4955310;29;20042;-41
2021/08/21 01:52:02;;;;;;;5.57;4.50;;;25.60;51.50;;;;;;4955247;29;20032;-46
2021/08/21 01:54:28;;;;;;;8.50;4.00;;;25.70;51.60;;;;;;4955763;29;20055;-44
2021/08/21 01:56:56;;;;;;;8.75;5.10;;;25.70;51.50;;;;;;4954887;29;20496;-42
2021/08/21 01:59:37;;;;;;;8.65;4.57;;;25.70;51.50;;;;;;4955267;29;20071;-43
2021/08/21 02:02:05;;;;;;;6.68;4.53;;;25.70;51.50;;;;;;4954817;29;20031;-48
2021/08/21 02:04:31;;;;;;;7.43;4.68;;;25.70;51.40;;;;;;4955040;29;20035;-41
2021/08/21 02:06:57;;;;;;;13.73;4.88;;;25.80;51.50;;;;;;4953714;29;20032;-58
2021/08/21 02:09:24;;;;;;;6.82;4.53;;;25.80;51.50;;;;;;4955565;29;20385;-61
2021/08/21 02:11:52;;;;;;;8.88;5.15;;;25.80;51.40;;;;;;4953788;29;20027;-65
2021/08/21 02:14:19;;;;;;;7.45;5.03;;;25.90;51.40;;;;;;4953925;29;20037;-57
2021/08/21 02:16:51;;;;;;;8.73;4.97;;;25.90;51.30;;;;;;4954785;28;20429;-56
2021/08/21 02:19:17;;;;;;;8.23;5.22;;;25.90;51.20;;;;;;4954946;29;20035;-56
2021/08/21 02:21:44;;;;;;;7.30;5.43;;;25.90;51.10;;;;;;4955566;29;20109;-57
2021/08/21 02:24:09;;;;;;;11.20;5.00;;;25.90;51.10;;;;;;4953581;29;20078;-59
2021/08/21 02:26:40;;;;;;;6.97;4.95;;;25.90;51.10;;;;;;4955097;29;20035;-59
2021/08/21 02:29:09;;;;;;;7.50;4.82;;;25.90;51.20;;;;;;4954843;29;20069;-59
2021/08/21 02:31:35;;;;;;;10.88;5.05;;;25.90;51.20;;;;;;4953865;29;20027;-42
2021/08/21 02:34:01;;;;;;;6.43;4.63;;;25.90;51.30;;;;;;4952911;29;20126;-43
2021/08/21 02:36:27;;;;;;;7.97;4.22;;;25.90;51.90;;;;;;4954556;29;20098;-45
2021/08/21 02:38:53;;;;;;;8.90;4.70;;;25.90;51.20;;;;;;4936739;29;20540;-45
2021/08/21 02:41:18;;;;;;;7.05;4.80;;;25.80;51.30;;;;;;4954733;29;20107;-42
2021/08/21 02:43:44;;;;;;;9.48;4.70;;;25.90;51.20;;;;;;4954347;29;20027;-43
2021/08/21 02:46:10;;;;;;;6.47;4.70;;;25.80;51.20;;;;;;4953569;29;20023;-39
2021/08/21 02:48:36;;;;;;;7.60;4.57;;;25.90;51.30;;;;;;4952955;29;20031;-41
2021/08/21 02:51:02;;;;;;;6.63;4.97;;;25.80;51.30;;;;;;4936337;29;20110;-45
2021/08/21 02:53:28;;;;;;;9.85;4.70;;;25.80;51.20;;;;;;4952826;29;20057;-42
2021/08/21 02:55:54;;;;;;;6.40;4.82;;;25.80;51.20;;;;;;4953508;29;20038;-46
2021/08/21 02:58:19;;;;;;;8.57;4.60;;;25.80;51.30;;;;;;4954004;29;20035;-46
2021/08/21 03:00:45;;;;;;;7.18;5.07;;;25.80;51.40;;;;;;4952930;29;20110;-46
2021/08/21 03:03:12;;;;;;;8.88;5.18;;;25.70;51.40;;;;;;4952469;29;20054;-46
2021/08/21 03:05:38;;;;;;;9.23;4.95;;;25.70;51.50;;;;;;4954059;29;20035;-42
2021/08/21 03:08:04;;;;;;;8.00;5.05;;;25.70;51.60;;;;;;4953457;29;20068;-44
2021/08/21 03:10:30;;;;;;;7.57;4.65;;;25.60;51.50;;;;;;4952683;29;20038;-44
2021/08/21 03:12:56;;;;;;;6.50;4.65;;;25.70;51.50;;;;;;4953549;29;20468;-43
2021/08/21 03:15:24;;;;;;;7.22;4.50;;;25.70;51.40;;;;;;4953424;29;20509;-42
2021/08/21 03:17:50;;;;;;;7.07;4.45;;;25.70;51.30;;;;;;4953874;29;20058;-43
2021/08/21 03:20:16;;;;;;;8.50;4.85;;;25.70;51.30;;;;;;4951959;29;20438;-43
2021/08/21 03:22:42;;;;;;;5.93;4.20;;;25.70;51.50;;;;;;4953856;29;20054;-44
2021/08/21 03:25:08;;;;;;;11.02;4.75;;;25.70;51.50;;;;;;4953338;29;20460;-43
2021/08/21 03:27:33;;;;;;;7.60;5.03;;;25.60;51.50;;;;;;4953422;29;20106;-41
2021/08/21 03:29:59;;;;;;;7.40;4.93;;;25.60;51.50;;;;;;4935566;29;20389;-42
2021/08/21 03:32:25;;;;;;;6.72;4.45;;;25.60;51.50;;;;;;4954524;29;20032;-43
2021/08/21 03:34:50;;;;;;;7.25;4.38;;;25.50;51.70;;;;;;4953958;29;20033;-44
2021/08/21 03:37:16;;;;;;;7.85;4.88;;;25.40;51.80;;;;;;4953763;29;20027;-43
2021/08/21 03:39:42;;;;;;;5.80;4.55;;;25.40;51.90;;;;;;4952516;29;20039;-44
2021/08/21 03:42:07;;;;;;;5.53;4.43;;;25.40;51.90;;;;;;4951814;29;20036;-40
2021/08/21 03:44:33;;;;;;;9.23;4.68;;;25.40;52.00;;;;;;4953762;29;20027;-40
2021/08/21 03:46:59;;;;;;;8.38;4.47;;;25.40;52.00;;;;;;4952980;29;20024;-44
2021/08/21 03:49:25;;;;;;;7.82;4.45;;;25.40;52.10;;;;;;4952569;29;20031;-43
2021/08/21 03:51:51;;;;;;;7.50;5.03;;;25.40;52.10;;;;;;4953636;29;20028;-44
2021/08/21 03:54:16;;;;;;;9.35;4.95;;;25.30;52.20;;;;;;4953118;29;20579;-40
2021/08/21 03:56:42;;;;;;;9.70;4.00;;;25.30;52.30;;;;;;4953072;29;20034;-41
2021/08/21 03:59:08;;;;;;;9.95;4.82;;;25.30;52.30;;;;;;4951232;29;20469;-40
2021/08/21 04:01:34;;;;;;;5.95;4.80;;;25.30;52.40;;;;;;4953364;29;20027;-39
2021/08/21 04:06:44;;;;;;;;;;;25.30;52.40;;;;;;4953877;29;20032;-40
2021/08/21 04:09:09;;;;;;;6.32;4.53;;;25.40;52.30;;;;;;4952879;29;19907;-41
2021/08/21 04:11:35;;;;;;;8.20;4.70;;;25.30;52.20;;;;;;4953157;29;20426;-40
2021/08/21 04:14:01;;;;;;;8.55;5.00;;;25.20;52.40;;;;;;4951672;29;20118;-41
2021/08/21 04:16:27;;;;;;;9.13;5.28;;;25.20;52.40;;;;;;4953162;29;20461;-41
2021/08/21 04:18:52;;;;;;;9.13;4.88;;;25.30;52.40;;;;;;4951562;29;20473;-44
2021/08/21 04:21:18;;;;;;;8.60;5.00;;;25.30;52.30;;;;;;4951405;29;20086;-42
2021/08/21 04:23:44;;;;;;;7.82;5.05;;;25.30;52.20;;;;;;4952849;29;20031;-46
2021/08/21 04:26:11;;;;;;;7.75;5.20;;;25.30;52.20;;;;;;4951531;29;20421;-42
2021/08/21 04:28:36;;;;;;;11.65;5.43;;;25.30;52.10;;;;;;4953220;29;20082;-44
2021/08/21 04:31:02;;;;;;;9.13;5.32;;;25.30;52.00;;;;;;4952566;29;20067;-43
2021/08/21 04:33:28;;;;;;;8.15;5.00;;;25.30;52.10;;;;;;4951872;29;20027;-47
2021/08/21 04:35:54;;;;;;;8.10;4.97;;;25.30;52.10;;;;;;4953246;29;20495;-45
2021/08/21 04:38:20;;;;;;;7.05;4.40;;;25.30;52.00;;;;;;4952569;29;20055;-43
2021/08/21 04:40:47;;;;;;;8.45;4.95;;;25.30;52.00;;;;;;4953848;28;20044;-41
2021/08/21 04:43:16;;;;;;;7.05;4.32;;;25.30;51.90;;;;;;4956245;29;20023;-44
2021/08/21 04:45:43;;;;;;;7.45;4.43;;;25.30;52.00;;;;;;4956238;29;20031;-43
2021/08/21 04:48:27;;;;;;;10.25;5.43;;;25.30;52.00;;;;;;4956076;29;20083;-40
2021/08/21 04:50:53;;;;;;;8.70;4.75;;;25.30;52.20;;;;;;4956466;29;20027;-40
2021/08/21 04:53:18;;;;;;;10.13;5.10;;;25.30;52.10;;;;;;4954317;29;20049;-43
2021/08/21 04:55:44;;;;;;;9.70;5.15;;;25.30;52.00;;;;;;4956344;29;20034;-43
2021/08/21 04:58:10;;;;;;;6.65;4.63;;;25.30;52.00;;;;;;4955572;29;20543;-46
2021/08/21 05:00:36;;;;;;;8.18;5.05;;;25.30;51.90;;;;;;4954989;29;20082;-43
2021/08/21 05:03:01;;;;;;;7.68;4.88;;;25.30;52.00;;;;;;4955322;29;20381;-43
2021/08/21 05:05:28;;;;;;;8.05;5.22;;;25.30;52.00;;;;;;4955665;29;20050;-40
2021/08/21 05:07:54;;;;;;;8.02;4.82;;;25.30;52.10;;;;;;4955918;29;20038;-46
2021/08/21 05:10:20;;;;;;;7.53;4.90;;;25.30;52.20;;;;;;4955478;29;20031;-44
2021/08/21 05:12:45;;;;;;;8.63;4.80;;;25.20;52.30;;;;;;4954581;29;20031;-41
2021/08/21 05:15:12;;;;;;;9.60;4.90;;;25.30;52.40;;;;;;4955126;29;20106;-41
2021/08/21 05:17:38;;;;;;;7.70;5.70;;;25.30;52.30;;;;;;4955655;29;20029;-43
2021/08/21 05:20:15;;;;;;;8.50;5.30;;;25.30;52.30;;;;;;4953911;29;20130;-41
2021/08/21 05:25:12;;;;;;;7.90;5.10;;;25.30;52.30;;;;;;4955317;29;20086;-44
2021/08/21 05:27:38;;;;;;;18.02;6.25;;;25.20;52.40;;;;;;4938114;29;20027;-44
2021/08/21 05:30:05;;;;;;;9.35;6.20;;;25.20;52.70;;;;;;4954834;29;20114;-41
2021/08/21 05:32:32;;;;;;;8.02;4.95;;;25.20;52.90;;;;;;4955217;29;20055;-41
2021/08/21 05:34:58;;;;;;;8.43;4.68;;;25.30;52.90;;;;;;4955419;29;20039;-44
2021/08/21 05:37:23;;;;;;;9.13;4.40;;;25.30;52.70;;;;;;4954891;29;20473;-44
2021/08/21 05:39:49;;;;;;;6.47;4.30;;;25.30;52.60;;;;;;4953883;29;20031;-40
2021/08/21 05:42:15;;;;;;;9.18;4.70;;;25.30;52.50;;;;;;4954591;29;20027;-49
2021/08/21 05:44:41;;;;;;;8.70;4.72;;;25.30;52.50;;;;;;4953971;29;20058;-43
2021/08/21 05:47:06;;;;;;;9.35;4.75;;;25.30;52.50;;;;;;4953387;29;20428;-44
2021/08/21 05:49:32;;;;;;;8.55;4.63;;;25.30;52.60;;;;;;4954829;29;20036;-41
2021/08/21 05:51:58;;;;;;;5.13;4.10;;;25.30;52.40;;;;;;4954614;28;20508;-46
2021/08/21 05:54:23;;;;;;;9.27;4.28;;;25.30;52.00;;;;;;4953192;29;20043;-44
2021/08/21 05:56:49;;;;;;;6.70;4.50;;;25.30;52.10;;;;;;4953680;29;20028;-43
2021/08/21 05:59:15;;;;;;;8.73;4.97;;;25.30;52.20;;;;;;4954487;29;20039;-43
2021/08/21 06:01:40;;;;;;;5.53;3.88;;;25.30;52.30;;;;;;4955095;29;20447;-41
2021/08/21 06:04:06;;;;;;;7.38;4.63;;;25.40;52.30;;;;;;4954289;29;20034;-46
2021/08/21 06:06:36;;;;;;;9.23;5.40;;;25.40;52.20;;;;;;4954720;29;20039;-42
2021/08/21 06:09:03;;;;;;;7.70;5.10;;;25.40;52.90;;;;;;4954441;29;20098;-40
2021/08/21 06:11:30;;;;;;;7.28;5.03;;;25.40;52.20;;;;;;4953509;29;20031;-45
2021/08/21 06:13:56;;;;;;;6.97;5.10;;;25.40;52.20;;;;;;4953357;29;20027;-48
2021/08/21 06:16:22;;;;;;;8.15;5.20;;;25.40;52.20;;;;;;4953919;29;20034;-41
2021/08/21 06:18:48;;;;;;;8.32;4.97;;;25.50;52.20;;;;;;4953765;29;20062;-45
2021/08/21 06:21:14;;;;;;;8.85;5.30;;;25.50;52.10;;;;;;4953730;29;20027;-49
2021/08/21 06:23:40;;;;;;;9.23;5.38;;;25.50;52.00;;;;;;4953198;29;20063;-42
2021/08/21 06:26:06;;;;;;;10.10;5.63;;;25.50;51.90;;;;;;4953966;29;20384;-46
2021/08/21 06:28:33;;;;;;;9.98;5.05;;;25.60;51.90;;;;;;4954443;29;20031;-41
2021/08/21 06:30:58;;;;;;;10.13;5.15;;;25.60;51.90;;;;;;4954448;29;20069;-47
2021/08/21 06:33:24;;;;;;;9.20;5.70;;;25.60;51.90;;;;;;4953996;29;20054;-42
2021/08/21 06:35:50;;;;;;;10.48;5.65;;;25.60;51.80;;;;;;4937135;29;20027;-45
2021/08/21 06:38:16;;;;;;;8.63;5.32;;;25.60;51.70;;;;;;4954365;29;20046;-40
2021/08/21 06:40:42;;;;;;;7.10;4.72;;;25.70;51.80;;;;;;4953885;29;20495;-43
2021/08/21 06:43:08;;;;;;;12.05;5.22;;;25.70;51.60;;;;;;4952081;29;20027;-48
2021/08/21 06:45:34;;;;;;;10.35;4.95;;;25.80;51.40;;;;;;4953940;29;20023;-45
2021/08/21 06:47:59;;;;;;;9.32;5.07;;;25.70;51.30;;;;;;4952128;29;20487;-40
2021/08/21 06:50:25;;;;;;;7.07;4.60;;;25.80;51.20;;;;;;4954021;29;20031;-42
2021/08/21 06:52:51;;;;;;;6.25;4.28;;;25.80;51.10;;;;;;4953439;29;20202;-40
2021/08/21 06:55:17;;;;;;;8.27;5.03;;;25.80;51.20;;;;;;4952450;29;20041;-45
2021/08/21 06:57:43;;;;;;;7.70;4.60;;;25.90;51.20;;;;;;4954187;29;20078;-47
2021/08/21 07:00:09;;;;;;;10.05;4.38;;;25.90;50.80;;;;;;4952823;29;20039;-43
2021/08/21 07:02:35;;;;;;;13.55;5.80;;;25.90;50.80;;;;;;4954132;29;20163;-45
2021/08/21 07:05:01;;;;;;;10.32;4.70;;;25.90;50.80;;;;;;4952712;28;20449;-41
2021/08/21 07:07:27;;;;;;;10.63;4.68;;;25.90;50.60;;;;;;4953823;29;20027;-39
2021/08/21 07:09:52;;;;;;;6.40;4.43;;;25.90;51.30;;;;;;4953053;29;20034;-42
2021/08/21 07:12:18;;;;;;;8.07;3.85;;;26.00;50.50;;;;;;4952315;29;20484;-39
2021/08/21 07:14:44;;;;;;;6.45;3.70;;;26.10;50.40;;;;;;4953503;29;20389;-46
2021/08/21 07:17:10;;;;;;;6.35;4.15;;;26.20;50.30;;;;;;4951796;29;20059;-42
2021/08/21 07:19:37;;;;;;;9.32;3.80;;;26.30;50.10;;;;;;4952473;29;20031;-43
2021/08/21 07:22:02;;;;;;;6.15;3.40;;;26.40;49.90;;;;;;4951850;29;20054;-40
2021/08/21 07:24:28;;;;;;;6.95;3.90;;;26.40;49.60;;;;;;4953308;29;20031;-43
2021/08/21 07:26:54;;;;;;;6.57;4.10;;;26.50;49.60;;;;;;4951589;29;20499;-44
2021/08/21 07:29:20;;;;;;;11.57;3.83;;;26.60;49.40;;;;;;4952146;29;20035;-42
2021/08/21 07:31:45;;;;;;;8.68;4.15;;;26.70;49.50;;;;;;4952217;29;20023;-43
2021/08/21 07:34:11;;;;;;;10.43;4.40;;;26.70;49.40;;;;;;4951523;29;20063;-40
2021/08/21 07:36:37;;;;;;;11.15;3.92;;;26.80;49.30;;;;;;4953364;29;20027;-42
2021/08/21 07:39:03;;;;;;;9.02;4.53;;;26.80;49.40;;;;;;4951743;29;20106;-43
2021/08/21 07:41:32;;;;;;;5.82;4.20;;;26.90;49.70;;;;;;4953481;29;20118;-43
2021/08/21 07:43:58;;;;;;;12.48;3.97;;;26.80;49.70;;;;;;4953180;29;20039;-44
2021/08/21 07:46:23;;;;;;;7.05;4.20;;;26.90;49.70;;;;;;4953511;29;20020;-44
2021/08/21 07:48:49;;;;;;;8.98;4.43;;;27.00;49.70;;;;;;4952966;29;20066;-52
2021/08/21 07:51:15;;;;;;;12.13;3.85;;;27.00;49.70;;;;;;4952170;29;20028;-56
2021/08/21 07:53:41;;;;;;;8.68;4.18;;;27.00;49.70;;;;;;4953293;29;20131;-44
2021/08/21 07:56:06;;;;;;;10.68;4.63;;;27.10;49.80;;;;;;4951584;29;20063;-45
2021/08/21 07:58:33;;;;;;;9.45;4.40;;;27.10;49.70;;;;;;4951708;29;20035;-42
2021/08/21 08:01:00;;;;;;;9.88;4.30;;;27.10;49.70;;;;;;4954210;29;20068;-42
2021/08/21 08:03:25;;;;;;;8.32;4.68;;;27.10;49.40;;;;;;4953145;29;20027;-47
2021/08/21 08:05:51;;;;;;;6.30;4.00;;;27.10;49.20;;;;;;4952894;29;20031;-49
2021/08/21 08:08:17;;;;;;;7.13;3.72;;;27.10;49.00;;;;;;4935948;29;20035;-46
2021/08/21 08:10:43;;;;;;;26.73;15.05;;;27.10;49.10;;;;;;4952584;29;20159;-44
2021/08/21 08:13:09;;;;;;;12.27;8.10;;;27.10;49.00;;;;;;4952898;29;20117;-42
2021/08/21 08:15:35;;;;;;;9.07;4.68;;;27.10;49.10;;;;;;4954178;28;20122;-46
2021/08/21 08:18:00;;;;;;;6.53;4.57;;;27.10;49.10;;;;;;4955118;29;20023;-45
2021/08/21 08:20:26;;;;;;;7.70;4.20;;;27.10;49.10;;;;;;4954957;29;20532;-44
2021/08/21 08:22:53;;;;;;;9.63;4.20;;;27.10;49.10;;;;;;4954858;29;20057;-44
2021/08/21 08:25:19;;;;;;;7.68;3.80;;;27.10;49.10;;;;;;4956259;29;20477;-46
2021/08/21 08:27:46;;;;;;;7.60;3.97;;;27.10;49.20;;;;;;4956178;29;20038;-45
2021/08/21 08:30:16;;;;;;;9.80;4.65;;;27.10;49.40;;;;;;4956237;29;20448;-44
2021/08/21 08:32:42;;;;;;;11.70;5.05;;;27.20;49.20;;;;;;4954735;29;20369;-44
2021/08/21 08:35:10;;;;;;;6.80;4.32;;;27.20;49.00;;;;;;4954472;29;20029;-44
2021/08/21 08:37:35;;;;;;;7.95;4.43;;;27.20;48.80;;;;;;4954826;29;20035;-47
2021/08/21 08:40:02;;;;;;;9.82;4.35;;;27.20;48.80;;;;;;4955822;29;20035;-45
2021/08/21 08:42:28;;;;;;;17.95;4.63;;;27.20;48.90;;;;;;4939266;29;20107;-45
2021/08/21 08:44:54;;;;;;;14.15;4.20;;;27.30;48.90;;;;;;4954349;29;20027;-49
2021/08/21 08:47:21;;;;;;;10.40;3.80;;;27.30;48.70;;;;;;4956006;29;20473;-46
2021/08/21 08:49:48;;;;;;;8.63;3.85;;;27.30;48.80;;;;;;4956211;29;20043;-44
2021/08/21 08:52:18;;;;;;;8.60;3.80;;;27.30;48.70;;;;;;4955508;29;20056;-43
2021/08/21 08:54:45;;;;;;;10.18;3.92;;;27.30;48.70;;;;;;4955345;29;20051;-41
2021/08/21 08:57:38;;;;;;;6.75;3.70;;;27.30;48.50;;;;;;4954586;29;20089;-44
2021/08/21 09:00:08;;;;;;;6.43;3.63;;;27.30;48.50;;;;;;4954634;29;20050;-45
2021/08/21 09:02:51;;;;;;;7.63;4.05;;;27.30;48.30;;;;;;4954722;29;20491;-45
2021/08/21 09:05:20;;;;;;;8.27;4.00;;;27.30;48.40;;;;;;4956391;29;20027;-43
2021/08/21 09:07:52;;;;;;;7.28;3.97;;;27.40;48.40;;;;;;4954479;29;20034;-42
2021/08/21 09:10:23;;;;;;;12.25;3.90;;;27.40;48.40;;;;;;4955821;29;20031;-45
2021/08/21 09:13:02;;;;;;;5.25;3.92;;;27.40;48.90;;;;;;4953864;29;20023;-42
2021/08/21 09:15:31;;;;;;;5.30;4.10;;;27.40;48.10;;;;;;4956069;29;20023;-45
2021/08/21 09:18:07;;;;;;;6.95;4.25;;;27.40;47.90;;;;;;4954920;29;20027;-44
2021/08/21 09:20:52;;;;;;;6.28;4.22;;;27.40;48.00;;;;;;4955694;29;20039;-44
2021/08/21 09:23:21;;;;;;;5.90;3.75;;;27.50;48.10;;;;;;4954452;29;20465;-42
2021/08/21 09:25:48;;;;;;;7.90;3.72;;;27.50;48.00;;;;;;4955496;29;20038;-42
2021/08/21 09:28:15;;;;;;;6.65;3.50;;;27.40;47.90;;;;;;4953497;29;20023;-43
2021/08/21 09:30:41;;;;;;;6.80;4.47;;;27.40;47.70;;;;;;4954198;29;20023;-45
2021/08/21 09:33:07;;;;;;;6.50;4.05;;;27.50;47.80;;;;;;4937232;29;20054;-43
2021/08/21 09:35:34;;;;;;;11.10;4.25;;;27.40;47.90;;;;;;4954393;29;20023;-40
2021/08/21 09:38:00;;;;;;;6.25;3.92;;;27.50;47.80;;;;;;4954874;29;20118;-42
2021/08/21 09:40:38;;;;;;;5.20;3.47;;;27.50;47.50;;;;;;4954940;29;20027;-41
2021/08/21 09:43:06;;;;;;;9.27;3.42;;;27.40;47.30;;;;;;4954490;29;20027;-45
2021/08/21 09:45:35;;;;;;;7.82;3.58;;;27.40;47.30;;;;;;4954999;29;20082;-42
2021/08/21 09:48:08;;;;;;;19.80;14.38;;;27.50;47.50;;;;;;4952821;29;20078;-42
2021/08/21 09:50:36;;;;;;;28.90;17.88;;;27.50;47.20;;;;;;4954761;29;20031;-42
2021/08/21 09:53:10;;;;;;;15.38;11.88;;;27.50;47.10;;;;;;4952418;29;20487;-42
2021/08/21 09:55:37;;;;;;;24.45;5.05;;;27.50;47.10;;;;;;4935643;29;20058;-44
2021/08/21 09:58:06;;;;;;;5.93;3.25;;;27.60;46.50;;;;;;4918020;29;20035;-48
2021/08/21 10:00:35;;;;;;;14.00;4.38;;;27.60;45.80;;;;;;4934297;29;20511;-41
2021/08/21 10:03:04;;;;;;;11.95;4.72;;;27.50;46.00;;;;;;4933515;29;20099;-46
2021/08/21 10:05:30;;;;;;;8.07;3.95;;;27.50;46.30;;;;;;4934841;29;20028;-42
2021/08/21 10:08:08;;;;;;;7.63;3.70;;;27.50;46.50;;;;;;4934301;29;20480;-45
2021/08/21 10:10:35;;;;;;;5.65;3.15;;;27.60;46.50;;;;;;4934263;29;20066;-45
2021/08/21 10:13:18;;;;;;;7.13;3.20;;;27.60;46.40;;;;;;4935240;29;20086;-43
2021/08/21 10:15:46;;;;;;;5.80;3.10;;;27.60;46.40;;;;;;4935684;29;20150;-45
2021/08/21 10:18:17;;;;;;;6.57;4.75;;;27.60;46.40;;;;;;4934586;29;20019;-52
2021/08/21 10:20:42;;;;;;;9.85;4.78;;;27.60;46.10;;;;;;4934152;29;20031;-47
2021/08/21 10:23:14;;;;;;;10.15;4.57;;;27.60;46.10;;;;;;4934639;29;20032;-41
2021/08/21 10:25:53;;;;;;;24.45;4.30;;;27.60;46.10;;;;;;4916740;29;20031;-42
2021/08/21 10:28:21;;;;;;;10.02;4.07;;;27.70;46.20;;;;;;4932001;29;20369;-43
2021/08/21 10:30:51;;;;;;;11.00;4.03;;;27.70;46.30;;;;;;4918207;29;20034;-47
2021/08/21 10:33:18;;;;;;;7.38;4.05;;;27.70;46.30;;;;;;4935233;29;20021;-46
2021/08/21 10:35:54;;;;;;;8.52;3.75;;;27.80;46.10;;;;;;4934666;29;20028;-48
2021/08/21 10:38:29;;;;;;;5.22;3.20;;;27.70;46.00;;;;;;4932742;29;20111;-48
2021/08/21 10:40:58;;;;;;;4.72;3.08;;;27.70;45.80;;;;;;4934064;29;20063;-52
2021/08/21 10:43:45;;;;;;;6.57;3.13;;;27.70;45.60;;;;;;4934202;29;20035;-46
2021/08/21 10:46:12;;;;;;;5.40;3.13;;;27.70;45.70;;;;;;4932928;29;20027;-45
2021/08/21 10:48:38;;;;;;;5.13;3.67;;;27.80;45.60;;;;;;4932375;29;20032;-43
2021/08/21 10:51:32;;;;;;;5.57;3.72;;;27.80;45.40;;;;;;4916179;29;20489;-45
2021/08/21 10:53:59;;;;;;;4.32;3.13;;;27.80;45.40;;;;;;4920438;29;20138;-45
2021/08/21 10:56:38;;;;;;;4.68;3.38;;;27.80;45.20;;;;;;4934289;29;20426;-50
2021/08/21 10:59:04;;;;;;;4.07;2.88;;;27.80;45.00;;;;;;4948503;29;20036;-47
2021/08/21 11:01:30;;;;;;;7.72;3.17;;;27.90;45.00;;;;;;4933743;29;20063;-46
2021/08/21 11:03:57;;;;;;;5.25;2.97;;;27.90;45.00;;;;;;4948545;29;20028;-48
2021/08/21 11:06:35;;;;;;;5.95;3.30;;;27.90;45.10;;;;;;4948556;29;20028;-47
2021/08/21 11:09:06;;;;;;;5.53;3.50;;;27.80;45.00;;;;;;4947221;29;20070;-47
2021/08/21 11:11:42;;;;;;;6.38;3.50;;;27.90;45.10;;;;;;4948371;29;20466;-44
2021/08/21 11:14:20;;;;;;;4.70;3.47;;;27.90;45.10;;;;;;4932477;29;20059;-42
2021/08/21 11:16:54;;;;;;;7.72;3.40;;;27.90;45.10;;;;;;4947956;29;20034;-46
2021/08/21 11:19:35;;;;;;;8.75;4.15;;;27.90;45.10;;;;;;4933318;29;20042;-46
2021/08/21 11:22:27;;;;;;;10.18;6.30;;;27.90;45.00;;;;;;4932332;29;20034;-45
2021/08/21 11:24:53;;;;;;;8.73;5.35;;;28.00;45.10;;;;;;4929414;29;20036;-41
2021/08/21 11:27:28;;;;;;;9.50;4.28;;;28.00;44.80;;;;;;4946732;29;20368;-42
2021/08/21 11:30:20;;;;;;;5.90;4.15;;;28.00;44.70;;;;;;4947559;29;20049;-47
2021/08/21 11:32:59;;;;;;;5.35;3.70;;;28.00;44.90;;;;;;4931074;29;20115;-42
2021/08/21 11:35:28;;;;;;;6.45;4.15;;;28.00;44.90;;;;;;4947190;29;20028;-48
2021/08/21 11:38:01;;;;;;;7.13;4.10;;;28.00;44.90;;;;;;4947227;29;20028;-42
2021/08/21 11:40:39;;;;;;;5.90;4.00;;;28.00;44.90;;;;;;4932579;29;20034;-42
2021/08/21 11:43:07;;;;;;;6.32;3.35;;;28.00;44.90;;;;;;4946707;29;20035;-42
2021/08/21 11:45:34;;;;;;;6.30;3.97;;;28.10;44.80;;;;;;4932923;29;20261;-45
2021/08/21 11:48:00;;;;;;;6.47;4.15;;;28.10;44.90;;;;;;4947248;29;20028;-46
2021/08/21 11:50:30;;;;;;;8.80;3.70;;;28.10;45.00;;;;;;4934256;29;20122;-43
2021/08/21 11:53:00;;;;;;;5.18;3.58;;;28.10;44.90;;;;;;4950542;29;20028;-49
2021/08/21 11:55:28;;;;;;;6.43;3.65;;;28.10;44.90;;;;;;4955857;29;20051;-47
2021/08/21 11:57:55;;;;;;;9.85;4.20;;;28.10;44.80;;;;;;4955485;29;20038;-44
2021/08/21 12:00:28;;;;;;;12.43;5.00;;;28.20;44.70;;;;;;4953796;29;20090;-49
2021/08/21 12:03:00;;;;;;;6.82;4.47;;;28.20;44.70;;;;;;4953738;29;20039;-48
2021/08/21 12:05:33;;;;;;;11.90;4.30;;;28.20;44.70;;;;;;4955350;29;20035;-46
2021/08/21 12:08:13;;;;;;;5.60;3.88;;;28.20;44.60;;;;;;4954795;29;20031;-44
2021/08/21 12:11:01;;;;;;;9.70;3.88;;;28.20;44.80;;;;;;4955121;29;20039;-43
2021/08/21 12:13:36;;;;;;;12.88;3.78;;;28.20;44.60;;;;;;4955117;29;20023;-43
2021/08/21 12:16:17;;;;;;;10.73;6.00;;;28.20;44.80;;;;;;4954952;29;20023;-45
2021/08/21 12:18:47;;;;;;;15.70;7.65;;;28.20;44.60;;;;;;4953473;29;20075;-45
2021/08/21 12:21:20;;;;;;;9.40;5.97;;;28.20;44.50;;;;;;4955054;29;20038;-45
2021/08/21 12:23:48;;;;;;;10.20;6.22;;;28.30;44.40;;;;;;4955958;29;20114;-42
2021/08/21 12:26:14;;;;;;;10.85;7.03;;;28.30;44.30;;;;;;4954131;29;20520;-49
2021/08/21 12:28:45;;;;;;;10.20;6.70;;;28.30;44.30;;;;;;4954460;29;20541;-47
2021/08/21 12:31:16;;;;;;;22.90;15.65;;;28.30;44.30;;;;;;4953928;29;20165;-45
2021/08/21 12:33:45;;;;;;;17.00;12.93;;;28.30;44.10;;;;;;4955328;29;20026;-47
2021/08/21 12:36:20;;;;;;;21.10;14.98;;;28.30;44.00;;;;;;4953995;29;20321;-41
2021/08/21 12:39:03;;;;;;;12.02;8.95;;;28.30;43.90;;;;;;4954731;29;20414;-41
2021/08/21 12:41:31;;;;;;;38.45;28.88;;;28.20;43.90;;;;;;4955969;29;20163;-46
2021/08/21 12:44:14;;;;;;;27.42;21.48;;;28.30;43.60;;;;;;4955392;29;20038;-43
2021/08/21 12:46:53;;;;;;;17.92;12.13;;;28.30;43.60;;;;;;4954201;29;20110;-44
2021/08/21 12:49:37;;;;;;;12.05;9.13;;;28.30;43.70;;;;;;4937488;29;20686;-47
2021/08/21 12:52:05;;;;;;;7.43;4.70;;;28.30;43.70;;;;;;4954737;29;20110;-46
2021/08/21 12:54:32;;;;;;;11.95;7.60;;;28.30;43.50;;;;;;4955152;29;20061;-43
2021/08/21 12:57:09;;;;;;;7.90;6.40;;;28.40;43.80;;;;;;4952250;29;20031;-48